createdAt,value
2022-08-24T00:02:55.595Z,98029.50
2022-08-24T00:05:57.508Z,98026.19
2022-08-24T00:08:59.525Z,98039.31
2022-08-24T00:12:01.886Z,98039.72
2022-08-24T00:15:06.529Z,98047.03
2022-08-24T00:18:08.516Z,98052.72
2022-08-24T00:21:11.067Z,98045.38
2022-08-24T00:24:12.901Z,98049.03
2022-08-24T00:27:15.096Z,98047.84
2022-08-24T00:30:19.229Z,98054.34
2022-08-24T00:33:21.128Z,98057.81
2022-08-24T00:36:24.887Z,98057.63
2022-08-24T00:39:27.033Z,98055.56
2022-08-24T00:42:28.925Z,98064.94
2022-08-24T00:45:34.481Z,98067.00
2022-08-24T00:48:40.218Z,98071.53
2022-08-24T00:51:48.890Z,98067.00
2022-08-24T00:55:01.342Z,98049.13
2022-08-24T00:58:08.072Z,98039.72
2022-08-24T01:01:14.859Z,98048.50
2022-08-24T01:04:31.880Z,98043.59
2022-08-24T01:07:38.562Z,98041.97
2022-08-24T01:10:46.078Z,98038.28
2022-08-24T01:13:50.085Z,98050.09
2022-08-24T01:17:10.552Z,98043.50
2022-08-24T01:20:13.229Z,98048.03
2022-08-24T01:23:36.859Z,98049.25
2022-08-24T01:26:47.787Z,98049.19
2022-08-24T01:29:50.375Z,98048.66
2022-08-24T01:32:59.797Z,98043.84
2022-08-24T01:36:07.037Z,98047.94
2022-08-24T01:39:36.551Z,98046.31
2022-08-24T01:42:38.271Z,98058.25
2022-08-24T01:45:40.088Z,98059.59
2022-08-24T01:48:42.174Z,98061.84
2022-08-24T01:51:45.863Z,98051.03
2022-08-24T01:54:49.455Z,98062.09
2022-08-24T01:57:51.720Z,98072.53
2022-08-24T02:00:53.536Z,98077.84
2022-08-24T02:03:55.467Z,98081.31
2022-08-24T02:06:59.541Z,98078.25
2022-08-24T02:10:04.062Z,98078.66
2022-08-24T02:13:06.098Z,98073.69
2022-08-24T02:16:09.460Z,98074.56
2022-08-24T02:19:11.498Z,98071.72
2022-08-24T02:22:16.350Z,98076.84
2022-08-24T02:25:18.441Z,98075.00
2022-08-24T02:28:20.393Z,98077.03
2022-08-24T02:31:22.596Z,98070.44
2022-08-24T02:34:26.047Z,98073.28
2022-08-24T02:37:28.028Z,98068.75
2022-08-24T02:40:30.025Z,98065.03
2022-08-24T02:43:31.971Z,98063.78
2022-08-24T02:46:37.002Z,98065.19
2022-08-24T02:49:42.469Z,98058.81
2022-08-24T02:52:44.523Z,98066.72
2022-08-24T02:55:47.354Z,98074.69
2022-08-24T02:58:54.179Z,98072.03
2022-08-24T03:01:56.875Z,98076.31
2022-08-24T03:04:59.260Z,98065.28
2022-08-24T03:08:02.205Z,98067.16
2022-08-24T03:11:08.379Z,98077.13
2022-08-24T03:14:10.308Z,98074.31
2022-08-24T03:17:12.438Z,98071.00
2022-08-24T03:20:18.354Z,98074.94
2022-08-24T03:23:24.355Z,98082.53
2022-08-24T03:26:26.194Z,98071.91
2022-08-24T03:29:28.409Z,98068.03
2022-08-24T03:32:36.220Z,98058.81
2022-08-24T03:35:39.187Z,98056.38
2022-08-24T03:38:41.513Z,98063.06
2022-08-24T03:41:43.341Z,98069.06
2022-08-24T03:44:45.059Z,98063.59
2022-08-24T03:47:47.327Z,98075.03
2022-08-24T03:50:49.113Z,98071.34
2022-08-24T03:53:52.260Z,98065.66
2022-08-24T03:56:56.711Z,98061.97
2022-08-24T04:00:00.238Z,98061.56
2022-08-24T04:03:03.162Z,98062.41
2022-08-24T04:06:06.166Z,98058.72
2022-08-24T04:09:08.578Z,98072.56
2022-08-24T04:12:14.334Z,98068.91
2022-08-24T04:15:18.909Z,98070.63
2022-08-24T04:18:20.824Z,98081.72
2022-08-24T04:21:26.674Z,98082.38
2022-08-24T04:24:29.066Z,98089.78
2022-08-24T04:27:31.537Z,98093.25
2022-08-24T04:30:33.589Z,98096.75
2022-08-24T04:33:47.218Z,98106.59
2022-08-24T04:36:56.836Z,98100.63
2022-08-24T04:40:00.794Z,98096.63
2022-08-24T04:43:09.465Z,98093.38
2022-08-24T04:46:15.633Z,98097.03
2022-08-24T04:49:17.741Z,98105.88
2022-08-24T04:52:19.603Z,98110.69
2022-08-24T04:55:22.021Z,98105.41
2022-08-24T04:58:24.745Z,98110.28
2022-08-24T05:01:28.662Z,98096.97
2022-08-24T05:04:31.624Z,98102.31
2022-08-24T05:07:33.987Z,98101.06
2022-08-24T05:10:41.532Z,98111.50
2022-08-24T05:13:43.919Z,98103.94
2022-08-24T05:16:53.219Z,98101.69
2022-08-24T05:19:58.527Z,98094.31
2022-08-24T05:23:04.246Z,98100.66
2022-08-24T05:26:10.452Z,98088.97
2022-08-24T05:29:13.181Z,98087.75
2022-08-24T05:32:20.168Z,98102.91
2022-08-24T05:35:23.529Z,98099.22
2022-08-24T05:38:26.264Z,98105.59
2022-08-24T05:41:28.609Z,98115.44
2022-08-24T05:44:39.502Z,98116.88
2022-08-24T05:47:41.515Z,98102.13
2022-08-24T05:50:58.843Z,98097.19
2022-08-24T05:54:08.105Z,98101.72
2022-08-24T05:57:33.462Z,98103.97
2022-08-24T06:00:46.069Z,98109.09
2022-08-24T06:03:49.363Z,98107.66
2022-08-24T06:06:51.730Z,98107.41
2022-08-24T06:09:54.311Z,98103.09
2022-08-24T06:12:58.849Z,98098.56
2022-08-24T06:16:27.937Z,98093.84
2022-08-24T06:19:30.107Z,98088.09
2022-08-24T06:22:32.405Z,98099.50
2022-08-24T06:25:52.992Z,98097.03
2022-08-24T06:28:56.951Z,98094.44
2022-08-24T06:31:59.367Z,98109.53
2022-08-24T06:35:02.310Z,98110.44
2022-08-24T06:38:05.628Z,98103.72
2022-08-24T06:41:09.824Z,98097.91
2022-08-24T06:44:14.305Z,98101.44
2022-08-24T06:47:29.983Z,98102.19
2022-08-24T06:50:35.750Z,98106.75
2022-08-24T06:53:38.472Z,98104.88
2022-08-24T06:56:41.914Z,98109.53
2022-08-24T06:59:44.904Z,98102.72
2022-08-24T07:02:47.400Z,98112.47
2022-08-24T07:05:51.268Z,98111.59
2022-08-24T07:09:06.410Z,98112.09
2022-08-24T07:12:10.505Z,98121.78
2022-08-24T07:15:16.332Z,98117.81
2022-08-24T07:18:23.433Z,98120.56
2022-08-24T07:21:26.148Z,98119.97
2022-08-24T07:24:28.295Z,98130.34
2022-08-24T07:27:31.930Z,98124.09
2022-08-24T07:30:34.175Z,98126.06
2022-08-24T07:33:36.728Z,98136.97
2022-08-24T07:36:44.547Z,98128.88
2022-08-24T07:39:47.575Z,98127.66
2022-08-24T07:42:52.725Z,98135.06
2022-08-24T07:45:54.893Z,98129.25
2022-08-24T07:49:11.052Z,98140.03
2022-08-24T07:52:17.797Z,98136.06
2022-08-24T07:55:20.519Z,98131.28
2022-08-24T07:58:24.847Z,98127.94
2022-08-24T08:01:27.456Z,98144.91
2022-08-24T08:04:29.919Z,98138.28
2022-08-24T08:07:32.285Z,98139.13
2022-08-24T08:10:36.311Z,98142.75
2022-08-24T08:16:50.082Z,98141.28
2022-08-24T08:19:57.144Z,98153.97
2022-08-24T08:23:17.805Z,98147.00
2022-08-24T08:26:35.686Z,98142.50
2022-08-24T08:29:47.381Z,98142.84
2022-08-24T08:32:49.990Z,98144.41
2022-08-24T08:36:05.154Z,98152.13
2022-08-24T08:39:10.855Z,98154.22
2022-08-24T08:43:09.463Z,98147.44
2022-08-24T08:46:11.776Z,98150.84
2022-08-24T08:50:08.882Z,98155.81
2022-08-24T08:53:48.018Z,98158.50
2022-08-24T08:57:02.265Z,98160.50
2022-08-24T09:00:22.773Z,98165.50
2022-08-24T09:04:07.867Z,98157.69
2022-08-24T09:07:39.551Z,98156.88
2022-08-24T09:11:22.716Z,98163.25
2022-08-24T09:14:43.695Z,98170.09
2022-08-24T09:18:19.185Z,98155.56
2022-08-24T09:21:36.749Z,98160.44
2022-08-24T09:24:57.037Z,98156.13
2022-08-24T09:29:13.560Z,98141.22
2022-08-24T09:32:29.787Z,98149.47
2022-08-24T09:36:10.845Z,98151.91
2022-08-24T09:39:34.749Z,98148.00
2022-08-24T09:43:06.578Z,98153.84
2022-08-24T09:46:57.713Z,98143.38
2022-08-24T09:50:19.419Z,98145.09
2022-08-24T09:53:48.374Z,98129.59
2022-08-24T09:57:12.044Z,98128.56
2022-08-24T10:00:47.871Z,98127.16
2022-08-24T10:04:19.940Z,98124.25
2022-08-24T10:07:28.426Z,98122.09
2022-08-24T10:10:53.126Z,98124.41
2022-08-24T10:14:30.605Z,98124.97
2022-08-24T10:17:53.572Z,98124.41
2022-08-24T10:20:58.829Z,98121.25
2022-08-24T10:24:21.507Z,98124.28
2022-08-24T10:27:41.906Z,98115.75
2022-08-24T10:31:12.928Z,98114.50
2022-08-24T10:34:34.455Z,98107.69
2022-08-24T10:38:19.147Z,98111.19
2022-08-24T10:41:53.044Z,98108.66
2022-08-24T10:45:24.718Z,98108.34
2022-08-24T10:48:33.280Z,98103.69
2022-08-24T10:52:15.183Z,98114.91
2022-08-24T10:55:39.575Z,98118.75
2022-08-24T10:58:57.831Z,98113.38
2022-08-24T11:02:36.162Z,98118.41
2022-08-24T11:05:49.340Z,98116.94
2022-08-24T11:09:00.717Z,98133.84
2022-08-24T11:12:18.792Z,98124.44
2022-08-24T11:15:28.455Z,98127.75
2022-08-24T11:18:53.073Z,98122.78
2022-08-24T11:21:57.690Z,98124.50
2022-08-24T11:25:29.591Z,98122.25
2022-08-24T11:28:46.685Z,98111.16
2022-08-24T11:31:50.954Z,98126.94
2022-08-24T11:34:53.671Z,98122.00
2022-08-24T11:38:05.096Z,98128.50
2022-08-24T11:41:20.843Z,98123.38
2022-08-24T11:44:29.102Z,98112.06
2022-08-24T11:47:53.028Z,98114.56
2022-08-24T11:51:16.771Z,98118.41
2022-08-24T11:54:27.897Z,98107.03
2022-08-24T11:57:30.186Z,98110.19
2022-08-24T12:01:13.870Z,98110.13
2022-08-24T12:04:35.656Z,98114.84
2022-08-24T12:07:40.876Z,98113.91
2022-08-24T12:10:49.132Z,98106.84
2022-08-24T12:14:23.758Z,98110.03
2022-08-24T12:17:52.649Z,98110.25
2022-08-24T12:20:55.024Z,98110.91
2022-08-24T12:24:08.853Z,98104.97
2022-08-24T12:27:17.307Z,98097.38
2022-08-24T12:30:21.927Z,98106.59
2022-08-24T12:33:32.829Z,98107.41
2022-08-24T12:36:48.249Z,98102.72
2022-08-24T12:40:19.231Z,98097.56
2022-08-24T12:43:43.419Z,98104.72
2022-08-24T12:46:53.749Z,98090.66
2022-08-24T12:50:07.105Z,98085.34
2022-08-24T12:53:13.930Z,98087.69
2022-08-24T12:56:35.436Z,98088.06
2022-08-24T12:59:46.317Z,98078.97
2022-08-24T13:03:00.313Z,98071.03
2022-08-24T13:06:07.501Z,98078.28
2022-08-24T13:09:27.047Z,98088.75
2022-08-24T13:12:40.744Z,98079.38
2022-08-24T13:15:46.113Z,98083.47
2022-08-24T13:19:06.347Z,98082.19
2022-08-24T13:22:09.644Z,98083.22
2022-08-24T13:25:47.595Z,98089.09
2022-08-24T13:28:54.362Z,98087.78
2022-08-24T13:32:00.865Z,98082.22
2022-08-24T13:35:35.609Z,98092.84
2022-08-24T13:38:42.827Z,98091.75
2022-08-24T13:42:33.512Z,98087.34
2022-08-24T13:45:36.137Z,98090.44
2022-08-24T13:49:02.742Z,98093.63
2022-08-24T13:52:24.413Z,98095.78
2022-08-24T13:56:05.071Z,98087.69
2022-08-24T13:59:18.829Z,98075.44
2022-08-24T14:02:43.204Z,98076.06
2022-08-24T14:05:50.924Z,98072.66
2022-08-24T14:09:20.581Z,98061.53
2022-08-24T14:12:34.836Z,98056.44
2022-08-24T14:16:15.474Z,98058.56
2022-08-24T14:19:26.417Z,98053.91
2022-08-24T14:22:50.883Z,98040.47
2022-08-24T14:26:32.171Z,98037.88
2022-08-24T14:29:40.922Z,98048.63
2022-08-24T14:33:01.917Z,98023.31
2022-08-24T14:36:13.930Z,98038.72
2022-08-24T14:39:43.737Z,98036.22
2022-08-24T14:42:55.071Z,98037.31
2022-08-24T14:46:01.481Z,98032.91
2022-08-24T14:49:18.374Z,98035.56
2022-08-24T14:52:31.640Z,98014.13
2022-08-24T14:55:43.869Z,98025.38
2022-08-24T14:59:11.499Z,98031.00
2022-08-24T15:02:17.098Z,98035.63
2022-08-24T15:05:23.262Z,98045.47
2022-08-24T15:08:48.104Z,98044.88
2022-08-24T15:11:52.494Z,98043.38
2022-08-24T15:15:34.199Z,98041.28
2022-08-24T15:19:04.359Z,98038.06
2022-08-24T15:22:32.378Z,98045.91
2022-08-24T15:26:07.496Z,98036.50
2022-08-24T15:29:37.387Z,98038.06
2022-08-24T15:32:53.453Z,98033.72
2022-08-24T15:36:30.242Z,98032.16
2022-08-24T15:39:32.909Z,98025.31
2022-08-24T15:42:36.401Z,98031.00
2022-08-24T15:45:47.267Z,98041.16
2022-08-24T15:48:50.887Z,98022.31
2022-08-24T15:52:06.945Z,98033.00
2022-08-24T15:55:26.938Z,98017.75
2022-08-24T15:58:37.157Z,98011.56
2022-08-24T16:01:58.302Z,98022.41
2022-08-24T16:05:21.105Z,98032.41
2022-08-24T16:08:24.576Z,98036.41
2022-08-24T16:11:40.722Z,98043.81
2022-08-24T16:14:47.511Z,98048.66
2022-08-24T16:17:57.144Z,98046.16
2022-08-24T16:21:00.948Z,98049.72
2022-08-24T16:24:25.936Z,98053.16
2022-08-24T16:27:58.012Z,98046.84
2022-08-24T16:31:07.577Z,98055.78
2022-08-24T16:34:28.889Z,98059.28
2022-08-24T16:37:32.777Z,98065.84
2022-08-24T16:40:36.819Z,98059.28
2022-08-24T16:43:41.489Z,98064.38
2022-08-24T16:46:48.063Z,98075.56
2022-08-24T16:49:52.985Z,98085.38
2022-08-24T16:52:55.085Z,98096.50
2022-08-24T16:55:58.608Z,98103.97
2022-08-24T16:59:01.452Z,98115.28
2022-08-24T17:02:04.240Z,98112.59
2022-08-24T17:05:09.072Z,98116.28
2022-08-24T17:08:13.122Z,98126.19
2022-08-24T17:11:16.003Z,98144.25
2022-08-24T17:14:20.970Z,98141.69
2022-08-24T17:17:23.473Z,98155.75
2022-08-24T17:20:26.546Z,98172.28
2022-08-24T17:23:29.229Z,98180.03
2022-08-24T17:26:33.192Z,98189.53
2022-08-24T17:29:35.990Z,98203.69
2022-08-24T17:32:38.240Z,98218.34
2022-08-24T17:35:47.588Z,98233.66
2022-08-24T17:38:55.607Z,98221.38
2022-08-24T17:41:59.271Z,98193.59
2022-08-24T17:45:02.797Z,98206.34
2022-08-24T17:48:05.533Z,98216.03
2022-08-24T17:51:10.564Z,98225.00
2022-08-24T17:54:13.704Z,98232.91
2022-08-24T17:57:16.512Z,98236.31
2022-08-24T18:00:19.417Z,98230.66
2022-08-24T18:03:27.433Z,98239.75
2022-08-24T18:06:31.097Z,98236.16
2022-08-24T18:09:57.764Z,98235.25
2022-08-24T18:13:02.441Z,98224.50
2022-08-24T18:16:05.634Z,98229.16
2022-08-24T18:19:08.865Z,98221.28
2022-08-24T18:22:11.543Z,98221.72
2022-08-24T18:25:18.773Z,98231.19
2022-08-24T18:28:23.937Z,98238.28
2022-08-24T18:31:27.188Z,98238.06
2022-08-24T18:34:31.241Z,98245.44
2022-08-24T18:37:33.668Z,98236.06
2022-08-24T18:40:36.586Z,98228.09
2022-08-24T18:43:39.353Z,98235.44
2022-08-24T18:46:41.927Z,98240.34
2022-08-24T18:49:49.508Z,98233.81
2022-08-24T18:52:51.883Z,98232.19
2022-08-24T18:55:54.581Z,98244.44
2022-08-24T18:58:58.486Z,98243.78
2022-08-24T19:02:19.664Z,98242.59
2022-08-24T19:05:24.699Z,98239.81
2022-08-24T19:08:27.162Z,98239.72
2022-08-24T19:11:29.293Z,98242.97
2022-08-24T19:14:34.389Z,98237.59
2022-08-24T19:17:36.613Z,98248.03
2022-08-24T19:20:48.328Z,98241.22
2022-08-24T19:23:51.276Z,98232.91
2022-08-24T19:26:54.012Z,98241.78
2022-08-24T19:29:56.683Z,98237.16
2022-08-24T19:32:59.747Z,98240.59
2022-08-24T19:36:07.947Z,98232.09
2022-08-24T19:39:10.661Z,98242.72
2022-08-24T19:42:13.540Z,98226.66
2022-08-24T19:45:36.396Z,98232.84
2022-08-24T19:48:43.606Z,98228.53
2022-08-24T19:51:46.598Z,98225.69
2022-08-24T19:54:49.104Z,98225.81
2022-08-24T19:57:55.412Z,98218.97
2022-08-24T20:01:02.393Z,98219.22
2022-08-24T20:04:07.029Z,98218.38
2022-08-24T20:07:15.584Z,98212.84
2022-08-24T20:10:25.806Z,98214.06
2022-08-24T20:13:28.290Z,98218.03
2022-08-24T20:16:42.422Z,98212.09
2022-08-24T20:19:45.030Z,98216.03
2022-08-24T20:22:47.409Z,98222.13
2022-08-24T20:25:49.638Z,98223.75
2022-08-24T20:28:53.329Z,98224.59
2022-08-24T20:31:58.983Z,98226.38
2022-08-24T20:35:02.820Z,98215.25
2022-08-24T20:38:08.510Z,98228.75
2022-08-24T20:41:13.472Z,98229.38
2022-08-24T20:44:15.684Z,98221.41
2022-08-24T20:47:17.988Z,98221.28
2022-08-24T20:50:30.856Z,98217.16
2022-08-24T20:53:36.627Z,98211.38
2022-08-24T20:56:44.611Z,98210.75
2022-08-24T20:59:47.909Z,98208.72
2022-08-24T21:02:50.479Z,98213.19
2022-08-24T21:05:52.809Z,98212.09
2022-08-24T21:08:55.197Z,98222.34
2022-08-24T21:11:57.504Z,98213.72
2022-08-24T21:15:02.292Z,98224.91
2022-08-24T21:18:04.366Z,98217.75
2022-08-24T21:21:07.017Z,98219.69
2022-08-24T21:24:09.256Z,98226.28
2022-08-24T21:27:11.495Z,98220.94
2022-08-24T21:30:17.145Z,98219.34
2022-08-24T21:33:38.177Z,98219.72
2022-08-24T21:36:41.314Z,98218.53
2022-08-24T21:39:44.509Z,98230.47
2022-08-24T21:42:49.274Z,98216.31
2022-08-24T21:45:51.616Z,98211.16
2022-08-24T21:48:53.939Z,98211.16
2022-08-24T21:51:56.494Z,98215.69
2022-08-24T21:54:59.659Z,98207.47
2022-08-24T21:58:01.740Z,98214.25
2022-08-24T22:01:04.115Z,98210.34
2022-08-24T22:04:06.315Z,98211.38
2022-08-24T22:07:08.717Z,98211.16
2022-08-24T22:10:12.112Z,98213.25
2022-08-24T22:13:16.298Z,98205.22
2022-08-24T22:16:19.329Z,98204.63
2022-08-24T22:19:22.505Z,98199.28
2022-08-24T22:22:25.261Z,98199.88
2022-08-24T22:25:27.509Z,98198.50
2022-08-24T22:28:30.485Z,98204.25
2022-08-24T22:31:35.385Z,98201.38
2022-08-24T22:34:37.368Z,98194.88
2022-08-24T22:37:39.498Z,98191.59
2022-08-24T22:40:43.695Z,98192.41
2022-08-24T22:44:04.723Z,98187.91
2022-08-24T22:47:13.021Z,98189.13
2022-08-24T22:50:20.811Z,98192.06
2022-08-24T22:53:24.079Z,98187.53
2022-08-24T22:56:38.603Z,98187.53
2022-08-24T22:59:42.559Z,98172.72
2022-08-24T23:02:44.603Z,98169.88
2022-08-24T23:05:46.749Z,98167.38
2022-08-24T23:08:49.546Z,98161.28
2022-08-24T23:11:54.384Z,98167.66
2022-08-24T23:14:58.786Z,98168.28
2022-08-24T23:18:20.916Z,98160.31
2022-08-24T23:21:22.985Z,98155.59
2022-08-24T23:24:25.146Z,98159.25
2022-08-24T23:27:27.778Z,98160.72
2022-08-24T23:30:39.225Z,98158.09
2022-08-24T23:33:41.058Z,98159.75
2022-08-24T23:36:43.431Z,98153.19
2022-08-24T23:39:45.491Z,98160.16
2022-08-24T23:42:47.806Z,98161.81
2022-08-24T23:45:49.734Z,98161.19
2022-08-24T23:48:55.878Z,98170.22
2022-08-24T23:52:06.489Z,98170.25
2022-08-24T23:55:20.637Z,98167.56
2022-08-24T23:58:41.404Z,98170.25
